Wednesday, February 21, 2018, 8:07 PM EST
Back to Local

KNEL, Lakehurst Naval Air Station

Location: Lakehurst, NJ, United States Lat: 40.033
Local Time: 8:07 PM EST ( 1:07 GMT) Lon: -74.317
Time Zone: US/Eastern Elev: 101 ft

Show me the last for .
Show Decoded

2018-02-21 20:00 METAR KNEL 220100Z AUTO 23008KT 10SM SCT100 21/16 A3029 RMK AO2 SLP254 T02060161
                 PNO $ =
2018-02-21 19:00 METAR KNEL 220000Z AUTO 21005KT 10SM CLR 21/16 A3028 RMK AO2 SLP251 6////
                 T02060161 10261 20206 53011 PNO $ =
2018-02-21 18:00 METAR KNEL 212300Z AUTO 21009KT 10SM BKN120 22/17 A3026 RMK AO2 SLP244 T02220167
                 PNO $ =
2018-02-21 17:00 METAR KNEL 212200Z AUTO 21007KT 10SM CLR 24/17 A3024 RMK AO2 SLP239 T02390167
                 PNO $ =
2018-02-21 16:00 METAR KNEL 212100Z AUTO 22013G20KT 10SM CLR 26/16 A3023 RMK AO2 SLP236 6////
                 T02560161 56014 PNO $ =
2018-02-21 15:00 METAR KNEL 212000Z AUTO 24013G19KT 10SM CLR 26/16 A3023 RMK AO2 SLP233 T02560161
                 PNO $ =
2018-02-21 14:00 METAR KNEL 211900Z AUTO 25015G23KT 10SM CLR 26/16 A3023 RMK AO2 PK WND
                 25028/1820 SLP233 T02560156 PNO $ =
2018-02-21 13:00 METAR KNEL 211800Z AUTO 24020G27KT 10SM CLR 25/16 A3024 RMK AO2 PK WND
                 21027/1730 SLP240 6//// T02500161 10256 20178 58017 PNO $ =
2018-02-21 12:00 METAR KNEL 211700Z AUTO 23016G24KT 10SM FEW030 24/17 A3027 RMK AO2 SLP247
                 T02440167 PNO $ =
2018-02-21 11:06 METAR KNEL 211606Z AUTO 24010G23KT 10SM SCT022 23/17 A3029 RMK AO2 SLP257
                 T02280167 PNO $ =
2018-02-21 11:00 METAR KNEL 211600Z AUTO 25015G23KT 10SM SCT022 22/17 A3030 =
2018-02-21 10:00 METAR KNEL 211500Z AUTO 24012KT 10SM OVC015 19/17 A3032 RMK AO2 SLP264 6////
                 T01940167 58001 PNO $ =
2018-02-21 09:52 METAR KNEL 211452Z AUTO 24012KT 10SM OVC015 19/17 A3032 RMK AO2 T01940167 PNO $
                 =
2018-02-21 09:06 METAR KNEL 211406Z AUTO 24011G17KT 9SM OVC012 18/16 A3032 RMK AO2 SLP264
                 T01780161 PNO $ =
2018-02-21 09:00 METAR KNEL 211400Z AUTO 24010KT 8SM OVC010 18/16 A3032 RMK AO2 PNO $ =
2018-02-21 08:00 METAR KNEL 211300Z AUTO 22009KT 7SM OVC008 17/16 A3032 RMK AO2 CIG 007V011
                 SLP267 T01670161 PNO $ =
2018-02-21 07:10 METAR KNEL 211210Z AUTO 21007KT 6SM BR OVC009 17/16 A3032 RMK AO2 CIG 007V012
                 PNO $ =
2018-02-21 07:00 METAR KNEL 211200Z AUTO 21006KT 6SM BR OVC010 17/16 A3032 RMK AO2 CIG 006V012
                 PNO $ =
2018-02-21 06:00 METAR KNEL 211100Z AUTO 21007KT 5SM BR OVC005 16/16 A3031 RMK AO2 SLP262
                 T01560156 PNO $ =
2018-02-21 05:31 METAR KNEL 211031Z AUTO 21007KT 6SM BR BKN006 BKN028 16/16 A3031 RMK AO2
                 T01560156 PNO $ =
2018-02-21 05:19 METAR KNEL 211019Z AUTO 19005KT 6SM BR FEW006 BKN028 16/15 A3031 RMK AO2
                 T01560150 PNO $ =
2018-02-21 05:00 METAR KNEL 211000Z AUTO 21005KT 7SM CLR 15/15 A3031 RMK AO2 SLP261 T01500150 PNO
                 $ =
2018-02-21 04:00 METAR KNEL 210900Z AUTO 21009KT 9SM CLR 16/15 A3031 RMK AO2 SLP262 6////
                 T01560150 58012 PNO $ =
2018-02-21 03:00 METAR KNEL 210800Z AUTO 20009KT 10SM CLR 16/15 A3031 RMK AO2 SLP262 T01610150
                 PNO $ =
2018-02-21 02:04 METAR KNEL 210704Z AUTO 20004KT 3SM BR FEW039 14/14 A3033 RMK AO2 T01390139 PNO
                 $ =
2018-02-21 02:00 METAR KNEL 210700Z AUTO 20003KT 1 3/4SM BR FEW039 14/14 A3033 RMK AO2 SLP267
                 T01390139 PNO $ =
2018-02-21 01:32 METAR KNEL 210632Z AUTO 18003KT 1 3/4SM BR SCT041 13/13 A3033 RMK AO2 T01330133
                 PNO $ =
2018-02-21 01:13 METAR KNEL 210613Z AUTO 19004KT 4SM BR SCT045 13/13 A3034 RMK AO2 T01330133 PNO
                 $ =
2018-02-21 01:00 METAR KNEL 210600Z AUTO 17003KT 2 1/2SM BR BKN045 13/13 A3034 RMK AO2 SLP273
                 6//// T01280128 10189 20128 53004 PNO $ =
2018-02-21 00:53 METAR KNEL 210553Z AUTO 17003KT 2 1/2SM BR SCT045 13/13 A3034 RMK AO2 T01280128
                 PNO $ =
2018-02-21 00:38 METAR KNEL 210538Z AUTO 16004KT 1 3/4SM BR SCT045 13/13 A3035 RMK AO2 T01330133
                 PNO $ =
2018-02-21 00:00 METAR KNEL 210500Z AUTO 20007KT 9SM CLR 15/14 A3035 RMK AO2 SLP275 T01500144
                 401500150 PNO $ =
2018-02-20 23:00 METAR KNEL 210400Z AUTO 22006KT 10SM CLR 16/15 A3034 RMK AO2 SLP271 T01610150
                 PNO $ =
2018-02-20 22:00 METAR KNEL 210300Z AUTO 22007KT 10SM CLR 17/15 A3034 RMK AO2 SLP270 6////
                 T01720150 51008 PNO $ =
2018-02-20 21:00 METAR KNEL 210200Z AUTO 22007KT 10SM CLR 17/15 A3034 RMK AO2 SLP270 T01720150
                 PNO $ =

Support USWX by starting your Amazon purchase here.